Time;durP1;ratioP1;P1;durP2;ratioP2;P2;SDS_P1;SDS_P2;PMS_P1;PMS_P2;Temp;Humidity;BMP_temperature;BMP_pressure;BME280_temperature;BME280_humidity;BME280_pressure;Samples;Min_cycle;Max_cycle;Signal;HPM_P1;HPM_P2
2022/03/13 00:02:08;;;;;;;22.15;9.23;;;;;;;2.45;44.07;100395.50;4968105;28;20042;-66
2022/03/13 00:04:35;;;;;;;20.33;9.97;;;;;;;2.38;44.14;100402.06;4984646;28;20053;-65
2022/03/13 00:07:08;;;;;;;19.33;9.77;;;;;;;2.45;43.81;100393.75;4987988;28;20129;-64
2022/03/13 00:09:34;;;;;;;19.93;9.00;;;;;;;2.34;44.07;100395.31;4987626;28;20572;-65
2022/03/13 00:12:07;;;;;;;18.33;8.87;;;;;;;2.35;43.93;100376.88;4971704;28;20046;-65
2022/03/13 00:14:34;;;;;;;16.23;8.40;;;;;;;2.32;44.07;100387.50;4974296;28;20085;-65
2022/03/13 00:17:00;;;;;;;17.77;8.80;;;;;;;2.33;43.86;100394.44;4990218;28;20045;-65
2022/03/13 00:19:30;;;;;;;19.60;8.83;;;;;;;2.36;43.93;100389.03;4989901;28;20129;-65
2022/03/13 00:21:56;;;;;;;16.77;8.70;;;;;;;2.34;43.86;100383.03;4973963;28;20494;-64
2022/03/13 00:24:22;;;;;;;21.63;9.43;;;;;;;2.28;44.00;100372.03;4973990;28;20046;-66
2022/03/13 00:26:49;;;;;;;17.47;8.43;;;;;;;2.36;43.86;100382.94;4974191;28;20050;-65
2022/03/13 00:29:15;;;;;;;16.83;8.43;;;;;;;2.37;43.86;100385.47;4958365;28;20545;-65
2022/03/13 00:31:41;;;;;;;17.83;8.60;;;;;;;2.33;43.87;100377.88;4973807;28;20038;-65
2022/03/13 00:34:08;;;;;;;15.43;8.67;;;;;;;2.33;43.83;100385.72;4997339;28;20112;-65
2022/03/13 00:36:34;;;;;;;16.77;8.57;;;;;;;2.32;43.67;100377.00;4976831;28;20096;-65
2022/03/13 00:39:01;;;;;;;21.37;8.73;;;;;;;2.34;44.04;100392.69;4993089;28;20053;-65
2022/03/13 00:41:27;;;;;;;17.60;8.70;;;;;;;2.33;43.90;100393.59;4992967;28;20042;-65
2022/03/13 00:43:52;;;;;;;18.30;8.87;;;;;;;2.37;43.52;100395.94;5009387;28;20520;-65
2022/03/13 00:46:18;;;;;;;16.87;8.80;;;;;;;2.34;43.54;100383.03;4961000;28;20048;-65
2022/03/13 00:48:44;;;;;;;18.63;9.03;;;;;;;2.37;43.31;100395.94;5009095;28;20513;-65
2022/03/13 00:51:10;;;;;;;17.63;9.47;;;;;;;2.42;43.61;100387.81;4976566;28;20137;-65
2022/03/13 00:53:37;;;;;;;14.83;8.37;;;;;;;2.56;43.56;100393.13;4992878;28;20038;-66
2022/03/13 00:56:04;;;;;;;20.97;9.13;;;;;;;2.47;43.45;100399.75;4994017;28;20053;-65
2022/03/13 00:58:30;;;;;;;18.93;8.87;;;;;;;2.60;43.30;100387.59;4992782;28;20042;-64
2022/03/13 01:00:56;;;;;;;17.23;8.37;;;;;;;2.72;42.89;100391.28;4976413;28;20092;-65
2022/03/13 01:03:31;;;;;;;15.00;8.90;;;;;;;3.01;42.62;100385.97;5009141;28;20042;-67
2022/03/13 01:05:58;;;;;;;15.13;8.07;;;;;;;2.98;42.47;100391.41;4992711;28;20140;-65
2022/03/13 01:08:24;;;;;;;20.37;9.17;;;;;;;3.15;42.03;100396.47;4992614;28;20046;-65
2022/03/13 01:10:50;;;;;;;19.20;9.30;;;;;;;3.22;41.80;100396.97;4976475;28;20089;-65
2022/03/13 01:13:17;;;;;;;17.53;9.03;;;;;;;3.28;41.86;100393.97;5008657;28;20506;-65
2022/03/13 01:15:45;;;;;;;16.23;8.03;;;;;;;3.24;41.61;100376.72;4992418;28;20054;-65
2022/03/13 01:18:10;;;;;;;16.07;8.37;;;;;;;3.53;41.22;100401.16;4991911;28;20042;-65
2022/03/13 01:20:36;;;;;;;19.23;9.63;;;;;;;3.59;40.73;100406.88;4993532;28;20395;-65
2022/03/13 01:23:02;;;;;;;13.73;8.30;;;;;;;3.70;40.79;100398.34;4992213;28;20413;-65
2022/03/13 01:25:29;;;;;;;20.03;8.90;;;;;;;3.68;40.41;100381.81;4992478;28;20430;-65
2022/03/13 01:27:57;;;;;;;16.53;8.60;;;;;;;3.85;40.43;100406.09;5008351;28;20042;-65
2022/03/13 01:30:28;;;;;;;19.08;9.15;;;;;;;4.01;40.00;100419.09;4992094;28;20078;-64
2022/03/13 01:32:54;;;;;;;18.03;9.07;;;;;;;4.06;39.58;100417.84;5008099;28;20081;-66
2022/03/13 01:35:22;;;;;;;16.57;8.70;;;;;;;4.05;39.62;100403.03;5008609;28;20146;-65
2022/03/13 01:37:48;;;;;;;15.90;8.80;;;;;;;4.17;39.31;100425.06;4993128;28;20046;-65
2022/03/13 01:40:22;;;;;;;17.97;9.00;;;;;;;4.30;39.32;100425.97;4959685;28;20510;-65
2022/03/13 01:42:49;;;;;;;17.63;8.73;;;;;;;4.26;39.46;100424.50;4991882;28;20042;-64
2022/03/13 01:45:18;;;;;;;16.07;8.77;;;;;;;4.17;39.10;100410.13;4975749;28;20196;-64
2022/03/13 01:47:44;;;;;;;15.17;8.17;;;;;;;4.09;39.11;100408.97;5008110;28;20129;-64
2022/03/13 01:50:11;;;;;;;23.00;8.53;;;;;;;4.31;38.90;100433.75;4991625;28;20038;-64
2022/03/13 01:52:44;;;;;;;19.52;8.23;;;;;;;4.34;38.76;100432.69;4991785;28;20070;-64
2022/03/13 01:55:12;;;;;;;12.53;7.40;;;;;;;4.21;38.48;100431.81;4991831;28;20042;-64
2022/03/13 01:57:38;;;;;;;14.53;6.80;;;;;;;4.05;37.92;100394.31;5007496;28;20046;-65
2022/03/13 02:00:07;;;;;;;13.63;6.60;;;;;;;4.35;37.97;100429.97;5007770;28;20038;-64
2022/03/13 02:02:47;;;;;;;12.43;7.60;;;;;;;4.20;37.95;100411.72;4992687;28;20135;-64
2022/03/13 02:05:26;;;;;;;14.90;6.60;;;;;;;4.35;37.60;100437.84;4992683;28;20100;-64
2022/03/13 02:07:52;;;;;;;11.57;6.33;;;;;;;4.09;37.74;100438.69;4992815;28;20104;-65
2022/03/13 02:10:18;;;;;;;11.57;6.33;;;;;;;4.15;37.45;100432.22;4991360;28;20544;-65
2022/03/13 02:12:44;;;;;;;11.87;6.90;;;;;;;4.15;37.59;100427.78;5007700;28;20042;-66
2022/03/13 02:15:10;;;;;;;12.83;6.77;;;;;;;4.03;37.50;100422.50;5007808;28;20394;-65
2022/03/13 02:17:35;;;;;;;14.90;7.10;;;;;;;4.18;37.43;100445.16;5007708;28;20054;-64
2022/03/13 02:20:03;;;;;;;9.93;5.60;;;;;;;4.28;37.43;100433.94;4991209;28;20081;-65
2022/03/13 02:22:30;;;;;;;9.33;5.77;;;;;;;4.27;37.30;100442.78;5007603;28;20046;-65
2022/03/13 02:24:56;;;;;;;14.30;6.40;;;;;;;4.22;37.26;100439.59;5007637;28;20034;-67
2022/03/13 02:27:27;;;;;;;11.97;5.77;;;;;;;4.39;36.93;100444.63;4991810;28;20105;-65
2022/03/13 02:29:55;;;;;;;12.40;6.33;;;;;;;4.34;36.91;100433.56;4992462;28;20092;-65
2022/03/13 02:32:21;;;;;;;12.43;6.57;;;;;;;4.41;37.18;100439.25;4991173;28;20070;-65
2022/03/13 02:34:47;;;;;;;10.63;6.40;;;;;;;4.37;37.12;100435.97;4978386;28;20082;-65
2022/03/13 02:37:35;;;;;;;12.37;6.77;;;;;;;4.60;37.01;100432.69;4987722;28;20054;-64
2022/03/13 02:40:02;;;;;;;11.73;6.53;;;;;;;4.41;37.42;100423.47;4971352;28;20038;-64
2022/03/13 02:42:29;;;;;;;10.33;5.87;;;;;;;4.37;37.25;100421.97;4987622;28;20395;-65
2022/03/13 02:44:55;;;;;;;12.03;6.63;;;;;;;4.40;37.23;100430.53;4939726;28;20049;-64
2022/03/13 02:47:21;;;;;;;10.57;5.73;;;;;;;4.44;37.10;100415.41;4955490;28;20141;-63
2022/03/13 02:49:47;;;;;;;9.07;5.23;;;;;;;4.51;37.10;100417.50;4971544;28;20137;-65
2022/03/13 02:52:13;;;;;;;11.17;6.13;;;;;;;4.54;37.14;100426.97;4972457;28;20057;-64
2022/03/13 02:54:39;;;;;;;12.57;6.13;;;;;;;4.60;37.11;100431.84;4971351;28;20525;-65
2022/03/13 02:57:04;;;;;;;9.17;5.83;;;;;;;4.48;37.21;100398.44;4987533;28;20049;-65
2022/03/13 02:59:30;;;;;;;11.83;6.07;;;;;;;4.66;36.76;100429.66;4971028;28;20042;-65
2022/03/13 03:01:57;;;;;;;12.03;6.30;;;;;;;4.71;36.64;100424.94;4939228;28;20097;-65
2022/03/13 03:04:24;;;;;;;11.10;6.87;;;;;;;4.72;36.70;100423.97;4987229;28;20074;-64
2022/03/13 03:07:01;;;;;;;10.63;6.20;;;;;;;4.91;36.72;100426.22;4971134;28;20054;-64
2022/03/13 03:09:29;;;;;;;11.20;6.30;;;;;;;4.85;36.77;100435.38;4955395;28;20042;-64
2022/03/13 03:11:57;;;;;;;10.80;6.27;;;;;;;4.67;36.94;100412.09;4970510;28;20414;-66
2022/03/13 03:14:23;;;;;;;12.17;7.30;;;;;;;4.74;36.82;100439.66;4969742;28;20039;-65
2022/03/13 03:16:49;;;;;;;12.03;7.27;;;;;;;4.67;36.91;100435.75;4970242;28;20154;-66
2022/03/13 03:19:15;;;;;;;15.03;8.10;;;;;;;4.77;36.82;100442.09;4987263;28;20410;-65
2022/03/13 03:21:41;;;;;;;12.80;7.23;;;;;;;4.76;36.81;100449.16;4954834;28;20522;-65
2022/03/13 03:24:12;;;;;;;13.40;7.57;;;;;;;4.86;36.96;100452.00;4970461;28;20507;-65
2022/03/13 03:26:38;;;;;;;12.95;7.45;;;;;;;4.74;37.06;100455.44;4986758;28;20062;-65
2022/03/13 03:29:04;;;;;;;15.63;7.43;;;;;;;4.75;36.87;100457.16;4970529;28;20162;-65
2022/03/13 03:31:30;;;;;;;15.23;7.30;;;;;;;4.66;37.08;100449.84;4986581;28;20055;-68
2022/03/13 03:33:56;;;;;;;11.43;7.37;;;;;;;4.71;37.18;100447.75;4954561;28;20495;-65
2022/03/13 03:36:22;;;;;;;13.37;7.30;;;;;;;4.75;37.21;100444.81;4986970;28;20042;-65
2022/03/13 03:38:48;;;;;;;16.10;7.10;;;;;;;4.75;37.23;100442.19;4971768;28;20046;-65
2022/03/13 03:41:13;;;;;;;29.80;12.20;;;;;;;4.77;37.07;100442.09;4973231;28;20086;-65
2022/03/13 03:43:39;;;;;;;12.63;7.77;;;;;;;4.77;36.96;100442.09;4974603;28;20088;-65
2022/03/13 03:46:05;;;;;;;18.10;7.73;;;;;;;4.65;37.14;100432.38;4958220;28;20043;-65
2022/03/13 03:48:32;;;;;;;14.63;8.07;;;;;;;4.79;36.96;100443.69;4990854;28;20046;-68
2022/03/13 03:50:58;;;;;;;12.13;6.97;;;;;;;4.78;37.37;100438.53;4974677;28;20055;-65
2022/03/13 03:53:23;;;;;;;13.80;7.47;;;;;;;4.77;37.54;100442.09;4974601;28;20050;-66
2022/03/13 03:55:49;;;;;;;13.17;7.40;;;;;;;4.78;37.71;100433.28;4990721;28;20043;-65
2022/03/13 03:58:19;;;;;;;11.70;6.60;;;;;;;4.74;37.88;100443.16;4974109;28;20394;-65
2022/03/13 04:00:44;;;;;;;13.00;6.77;;;;;;;4.75;38.07;100444.00;4927027;28;20051;-65
2022/03/13 04:03:10;;;;;;;12.80;7.63;;;;;;;4.73;38.18;100441.47;4942219;28;20038;-65
2022/03/13 04:05:36;;;;;;;13.67;8.27;;;;;;;4.77;37.97;100442.94;4958198;28;20042;-66
2022/03/13 04:08:02;;;;;;;10.07;6.27;;;;;;;4.69;37.99;100415.47;4942508;28;20137;-67
2022/03/13 04:10:29;;;;;;;10.17;5.97;;;;;;;4.82;38.09;100434.75;4958659;28;20043;-64
2022/03/13 04:12:57;;;;;;;7.50;5.87;;;;;;;4.77;38.16;100440.31;4974115;28;20050;-65
2022/03/13 04:15:23;;;;;;;8.63;5.37;;;;;;;4.83;37.93;100436.41;4974132;28;20054;-64
2022/03/13 04:17:50;;;;;;;7.73;5.90;;;;;;;4.80;38.21;100420.84;4990462;28;20121;-64
2022/03/13 04:20:15;;;;;;;7.13;5.10;;;;;;;4.82;38.05;100450.53;4975317;28;20396;-64
2022/03/13 04:22:41;;;;;;;8.60;5.20;;;;;;;4.83;38.39;100441.69;4941887;28;20181;-65
2022/03/13 04:25:08;;;;;;;6.17;4.57;;;;;;;4.89;38.16;100444.75;4957890;28;20039;-65
2022/03/13 04:27:35;;;;;;;5.97;4.50;;;;;;;4.93;38.07;100440.13;4973869;28;20090;-67
2022/03/13 04:30:01;;;;;;;7.50;4.53;;;;;;;5.28;37.57;100435.94;4974191;28;20104;-64
2022/03/13 04:32:27;;;;;;;6.87;4.63;;;;;;;5.35;37.07;100442.47;4973948;28;20043;-65
2022/03/13 04:34:53;;;;;;;7.43;5.00;;;;;;;5.11;37.67;100437.09;4957679;28;20063;-65
2022/03/13 04:37:20;;;;;;;7.83;4.73;;;;;;;5.21;37.82;100439.97;4941667;28;20050;-65
2022/03/13 04:39:47;;;;;;;7.27;4.67;;;;;;;4.85;37.78;100414.34;4957765;28;20047;-65
2022/03/13 04:42:17;;;;;;;7.88;4.43;;;;;;;5.00;38.02;100433.50;4973536;28;20093;-65
2022/03/13 04:44:44;;;;;;;7.50;4.30;;;;;;;4.75;38.20;100423.78;4957379;28;20055;-65
2022/03/13 04:47:10;;;;;;;6.03;4.13;;;;;;;4.76;38.69;100437.78;4973615;28;20038;-65
2022/03/13 04:49:37;;;;;;;4.57;3.47;;;;;;;4.56;38.61;100439.09;4989530;28;20043;-65
2022/03/13 04:52:03;;;;;;;6.03;3.90;;;;;;;4.67;38.33;100436.63;4956224;28;20062;-65
2022/03/13 04:54:29;;;;;;;6.77;3.40;;;;;;;4.51;38.64;100435.94;4974429;28;20074;-64
2022/03/13 04:56:55;;;;;;;7.47;3.27;;;;;;;4.52;39.04;100437.59;4941263;28;20042;-64
2022/03/13 04:59:21;;;;;;;4.53;3.40;;;;;;;4.42;39.08;100435.69;4957013;28;20035;-64
2022/03/13 05:01:46;;;;;;;3.77;3.00;;;;;;;4.22;39.08;100422.97;4989420;28;20098;-65
2022/03/13 05:04:12;;;;;;;5.67;3.20;;;;;;;4.29;39.15;100434.81;4973139;28;20078;-65
2022/03/13 05:06:43;;;;;;;3.93;3.20;;;;;;;4.42;39.09;100441.78;4956991;28;20050;-65
2022/03/13 05:09:08;;;;;;;3.72;2.60;;;;;;;4.29;39.03;100440.88;4939508;28;20502;-65
2022/03/13 05:11:34;;;;;;;4.53;3.00;;;;;;;4.30;39.00;100441.75;4973147;28;20061;-64
2022/03/13 05:14:00;;;;;;;5.67;3.03;;;;;;;4.39;39.04;100454.28;4974327;28;20125;-64
2022/03/13 05:16:27;;;;;;;3.80;2.60;;;;;;;4.49;38.75;100453.59;4956749;28;20049;-65
2022/03/13 05:18:53;;;;;;;4.40;3.10;;;;;;;4.48;38.60;100453.69;4957036;28;20061;-65
2022/03/13 05:21:19;;;;;;;3.63;2.80;;;;;;;4.41;38.32;100434.00;4989164;28;20050;-65
2022/03/13 05:23:45;;;;;;;5.07;3.30;;;;;;;4.58;38.22;100463.50;4972804;28;20041;-65
2022/03/13 05:26:10;;;;;;;3.87;2.70;;;;;;;4.47;38.15;100444.97;4956681;28;20506;-65
2022/03/13 05:28:36;;;;;;;3.60;2.83;;;;;;;4.62;37.93;100451.84;4974095;28;20046;-66
2022/03/13 05:31:02;;;;;;;3.90;2.70;;;;;;;4.64;37.95;100449.13;4957105;28;20055;-64
2022/03/13 05:33:30;;;;;;;3.07;2.37;;;;;;;4.72;37.70;100460.00;4976215;28;20410;-62
2022/03/13 05:35:57;;;;;;;6.10;2.40;;;;;;;4.90;37.71;100464.88;4985634;28;20108;-65
2022/03/13 05:38:23;;;;;;;4.17;2.63;;;;;;;4.97;37.18;100471.41;4994754;28;20136;-65
2022/03/13 05:40:49;;;;;;;3.50;2.60;;;;;;;4.89;36.83;100436.00;5010861;28;20137;-65
2022/03/13 05:43:15;;;;;;;3.70;2.33;;;;;;;5.06;36.55;100467.31;4991235;28;20050;-65
2022/03/13 05:45:47;;;;;;;4.07;2.20;;;;;;;5.14;36.73;100479.03;4992868;28;20105;-65
2022/03/13 05:48:15;;;;;;;3.53;2.20;;;;;;;5.29;36.23;100481.56;4977882;28;20505;-65
2022/03/13 05:50:41;;;;;;;4.43;2.60;;;;;;;5.34;36.22;100488.19;4992573;28;20193;-72
2022/03/13 05:53:07;;;;;;;2.70;2.30;;;;;;;5.40;35.84;100487.78;4959130;28;20137;-71
2022/03/13 05:55:33;;;;;;;3.37;2.40;;;;;;;5.40;35.98;100486.97;4991846;28;20092;-72
2022/03/13 05:58:00;;;;;;;4.90;2.70;;;;;;;5.53;35.74;100493.91;4991480;28;20109;-72
2022/03/13 06:00:27;;;;;;;2.40;2.10;;;;;;;5.59;35.76;100503.16;4990968;28;20046;-73
2022/03/13 06:02:53;;;;;;;3.60;2.33;;;;;;;5.51;35.64;100503.69;4990527;28;20050;-73
2022/03/13 06:05:20;;;;;;;3.23;2.30;;;;;;;5.63;35.38;100502.84;5007802;28;20096;-74
2022/03/13 06:07:47;;;;;;;2.73;2.03;;;;;;;5.62;35.19;100495.91;4959182;28;20096;-72
2022/03/13 06:10:14;;;;;;;2.33;2.13;;;;;;;5.72;34.97;100507.47;5007101;28;20502;-70
2022/03/13 06:12:43;;;;;;;3.73;2.07;;;;;;;5.61;35.12;100494.22;4991451;28;20042;-70
2022/03/13 06:15:12;;;;;;;4.82;2.53;;;;;;;5.82;35.24;100499.81;4990231;28;20449;-71
2022/03/13 06:17:42;;;;;;;4.38;3.00;;;;;;;5.82;35.14;100503.31;4991336;28;20046;-76
2022/03/13 06:20:10;;;;;;;4.60;2.40;;;;;;;5.90;35.08;100505.41;4991718;28;20092;-72
2022/03/13 06:22:42;;;;;;;4.10;3.08;;;;;;;5.99;34.96;100505.59;5007707;28;20046;-70
2022/03/13 06:25:10;;;;;;;;;;;;;;;6.27;34.75;100509.75;4975801;28;20046;-70
2022/03/13 06:27:40;;;;;;;4.73;2.60;;;;;;;6.13;35.05;100512.53;5008386;28;19971;-61
2022/03/13 06:30:15;;;;;;;8.02;2.88;;;;;;;6.24;35.15;100504.72;4992206;28;20482;-67
2022/03/13 06:32:56;;;;;;;8.40;3.40;;;;;;;6.01;35.12;100495.78;4986132;28;20513;-73
2022/03/13 06:35:24;;;;;;;5.70;2.57;;;;;;;6.18;35.18;100507.78;4992078;28;20058;-71
2022/03/13 06:37:53;;;;;;;3.67;2.80;;;;;;;6.02;35.28;100494.00;4973757;28;20030;-69
2022/03/13 06:40:20;;;;;;;4.47;3.03;;;;;;;6.15;35.25;100495.63;4987451;28;20481;-70
2022/03/13 06:42:49;;;;;;;3.23;2.53;;;;;;;6.02;35.56;100494.00;4976226;28;20501;-70
2022/03/13 06:45:18;;;;;;;7.13;3.00;;;;;;;6.00;35.93;100501.16;5010269;28;20042;-72
2022/03/13 06:47:46;;;;;;;7.83;3.60;;;;;;;6.10;35.83;100503.06;4994049;28;20088;-71
2022/03/13 06:50:17;;;;;;;4.97;3.00;;;;;;;6.13;35.60;100505.47;4977616;28;20049;-72
2022/03/13 06:52:45;;;;;;;9.67;3.77;;;;;;;6.20;35.78;100498.78;4977920;28;20081;-71
2022/03/13 06:55:14;;;;;;;11.03;3.80;;;;;;;6.12;36.07;100516.13;4977554;28;20056;-69
2022/03/13 06:57:42;;;;;;;7.35;3.65;;;;;;;6.29;35.82;100503.41;4977746;28;20103;-70
2022/03/13 07:00:10;;;;;;;4.73;3.30;;;;;;;6.33;36.09;100512.81;4993230;28;20045;-72
2022/03/13 07:02:38;;;;;;;5.37;3.60;;;;;;;6.40;35.92;100510.53;4977627;28;20107;-73
2022/03/13 07:05:06;;;;;;;;;;;;;;;6.57;35.83;100512.81;5010906;28;20080;-73
2022/03/13 07:07:32;;;;;;;6.97;3.83;;;;;;;6.31;36.07;100511.22;4977662;28;20358;-72
2022/03/13 07:09:58;;;;;;;7.83;4.33;;;;;;;6.30;36.00;100499.84;5010003;28;20168;-72
2022/03/13 07:12:25;;;;;;;6.60;4.00;;;;;;;6.43;36.30;100502.41;4977520;28;20042;-72
2022/03/13 07:14:52;;;;;;;6.70;3.87;;;;;;;6.37;36.29;100497.56;4960845;28;20042;-72
2022/03/13 07:17:18;;;;;;;9.30;4.17;;;;;;;6.44;36.24;100488.28;4993879;28;20038;-72
2022/03/13 07:19:45;;;;;;;7.67;4.30;;;;;;;6.68;36.14;100484.69;5009925;28;20428;-71
2022/03/13 07:22:12;;;;;;;8.63;4.47;;;;;;;6.77;35.89;100472.59;4994067;28;20049;-72
2022/03/13 07:24:39;;;;;;;8.40;3.97;;;;;;;6.90;35.83;100479.50;4993844;28;20050;-71
2022/03/13 07:27:06;;;;;;;7.17;4.30;;;;;;;6.97;35.71;100473.75;4993967;28;20049;-72
2022/03/13 07:29:32;;;;;;;9.67;4.40;;;;;;;7.06;35.59;100483.66;5009842;28;20200;-72
2022/03/13 07:31:58;;;;;;;8.00;3.87;;;;;;;7.13;35.63;100476.94;4977205;28;20140;-71
2022/03/13 07:34:24;;;;;;;9.17;4.63;;;;;;;7.27;35.17;100476.72;5009565;28;20064;-71
2022/03/13 07:36:51;;;;;;;8.53;4.67;;;;;;;7.21;35.12;100466.63;4977112;28;20057;-71
2022/03/13 07:39:18;;;;;;;9.37;5.00;;;;;;;7.27;35.12;100466.16;5009828;28;20528;-71
2022/03/13 07:41:45;;;;;;;8.10;4.07;;;;;;;7.26;35.21;100464.50;5009584;28;20633;-70
2022/03/13 07:44:13;;;;;;;8.50;4.07;;;;;;;7.27;34.94;100442.38;4961660;28;20476;-70
2022/03/13 07:46:39;;;;;;;7.67;4.40;;;;;;;7.44;34.80;100469.19;5009790;28;20401;-72
2022/03/13 07:49:05;;;;;;;12.37;5.30;;;;;;;7.43;34.84;100474.59;4977185;28;20038;-73
2022/03/13 07:51:34;;;;;;;14.17;5.03;;;;;;;7.32;35.07;100466.66;4976881;28;20536;-73
2022/03/13 07:54:01;;;;;;;8.30;4.53;;;;;;;7.40;35.01;100457.16;4977546;28;20188;-73
2022/03/13 07:56:27;;;;;;;7.60;4.47;;;;;;;7.44;35.21;100461.25;5009498;28;20145;-72
2022/03/13 07:58:53;;;;;;;11.80;4.57;;;;;;;7.58;34.82;100457.56;5009745;28;20057;-73
2022/03/13 08:01:19;;;;;;;17.73;4.47;;;;;;;7.75;34.50;100465.03;4993103;28;20417;-72
2022/03/13 08:03:45;;;;;;;11.03;4.70;;;;;;;7.76;34.19;100449.03;4993138;28;20046;-70
2022/03/13 08:06:11;;;;;;;8.33;4.33;;;;;;;7.99;34.24;100460.44;4977300;28;20049;-73
2022/03/13 08:08:37;;;;;;;10.80;5.20;;;;;;;7.97;34.23;100470.28;5009189;28;20413;-73
2022/03/13 08:11:04;;;;;;;9.80;4.90;;;;;;;7.97;34.35;100452.63;4976665;28;20045;-72
2022/03/13 08:13:30;;;;;;;10.57;5.07;;;;;;;7.79;34.43;100471.75;4976698;28;20050;-71
2022/03/13 08:15:55;;;;;;;11.10;5.10;;;;;;;7.75;34.37;100457.91;4992962;28;20053;-72
2022/03/13 08:18:21;;;;;;;8.83;4.90;;;;;;;8.07;34.04;100469.44;4944483;28;20494;-73
2022/03/13 08:20:47;;;;;;;17.13;5.00;;;;;;;8.22;33.60;100477.97;4976703;28;20068;-73
2022/03/13 08:23:14;;;;;;;9.23;5.03;;;;;;;7.94;34.01;100452.88;5009032;28;20042;-73
2022/03/13 08:25:40;;;;;;;11.30;5.10;;;;;;;8.08;34.01;100479.06;5009443;28;20038;-72
2022/03/13 08:28:06;;;;;;;14.80;4.97;;;;;;;8.16;33.67;100475.81;4963845;28;20132;-72
2022/03/13 08:30:34;;;;;;;13.83;5.77;;;;;;;8.25;33.78;100465.38;4996091;28;20069;-73
2022/03/13 08:32:59;;;;;;;13.87;5.63;;;;;;;8.37;33.47;100472.31;4996096;28;20041;-73
2022/03/13 08:35:25;;;;;;;10.20;5.20;;;;;;;8.55;33.06;100464.69;5012100;28;20060;-72
2022/03/13 08:37:52;;;;;;;9.30;5.10;;;;;;;8.92;32.40;100478.41;4996385;28;20046;-73
2022/03/13 08:40:19;;;;;;;11.03;4.90;;;;;;;8.81;32.59;100468.66;4996251;28;20042;-72
2022/03/13 08:42:45;;;;;;;10.13;5.13;;;;;;;8.87;32.34;100470.00;4996397;28;20509;-69
2022/03/13 08:45:18;;;;;;;11.30;5.17;;;;;;;8.90;32.63;100478.53;4979932;28;20042;-73
2022/03/13 08:47:44;;;;;;;12.97;5.80;;;;;;;8.78;32.18;100474.22;4996199;28;20046;-71
2022/03/13 08:50:13;;;;;;;9.03;5.00;;;;;;;8.65;32.61;100462.97;4996669;28;20050;-71
2022/03/13 08:52:41;;;;;;;10.30;4.73;;;;;;;8.67;32.36;100476.09;4996633;28;20100;-70
2022/03/13 08:55:08;;;;;;;21.03;6.20;;;;;;;8.77;32.54;100471.69;4979365;28;20140;-72
2022/03/13 08:57:42;;;;;;;10.30;5.43;;;;;;;9.02;32.25;100460.75;4995686;28;20489;-71
2022/03/13 09:00:14;;;;;;;10.80;4.63;;;;;;;9.09;32.28;100449.50;4995850;28;20074;-71
2022/03/13 09:02:40;;;;;;;12.10;5.07;;;;;;;8.99;32.31;100439.81;4995697;28;20045;-71
2022/03/13 09:05:06;;;;;;;10.30;4.73;;;;;;;9.12;31.95;100457.22;4979209;28;20163;-71
2022/03/13 09:07:34;;;;;;;13.82;5.25;;;;;;;9.27;31.70;100452.44;4995364;28;20042;-71
2022/03/13 09:10:11;;;;;;;12.27;5.43;;;;;;;9.42;31.77;100451.97;4995873;28;20046;-72
2022/03/13 09:12:38;;;;;;;12.63;5.23;;;;;;;9.10;32.14;100437.94;4996282;28;20104;-71
2022/03/13 09:15:05;;;;;;;11.23;5.07;;;;;;;8.97;32.41;100442.59;4995274;28;20060;-72
2022/03/13 09:17:32;;;;;;;11.23;5.70;;;;;;;9.04;32.45;100442.94;4979031;28;20038;-71
2022/03/13 09:19:58;;;;;;;10.33;4.83;;;;;;;9.03;32.56;100442.09;5011688;28;20038;-71
2022/03/13 09:22:28;;;;;;;9.47;4.90;;;;;;;9.16;32.20;100439.25;4978979;28;20180;-72
2022/03/13 09:24:57;;;;;;;10.20;5.63;;;;;;;9.30;32.14;100442.38;4995011;28;20042;-72
2022/03/13 09:27:27;;;;;;;11.40;5.67;;;;;;;9.50;31.75;100446.00;4995139;28;20072;-69
2022/03/13 09:29:57;;;;;;;14.80;5.32;;;;;;;9.59;31.82;100440.75;5011922;28;20077;-71
2022/03/13 09:32:24;;;;;;;13.20;5.10;;;;;;;9.56;31.56;100446.31;4994700;28;20042;-72
2022/03/13 09:34:50;;;;;;;17.47;5.87;;;;;;;9.43;31.62;100437.75;4939286;28;20046;-71
2022/03/13 09:37:16;;;;;;;12.63;5.38;;;;;;;9.45;31.61;100435.81;4959496;28;20035;-74
2022/03/13 09:40:15;;;;;;;11.43;5.00;;;;;;;9.78;31.16;100439.97;4974084;28;20046;-71
2022/03/13 09:42:44;;;;;;;9.30;4.95;;;;;;;9.52;31.60;100439.59;4978361;28;20047;-71
2022/03/13 09:45:13;;;;;;;10.77;5.53;;;;;;;9.59;31.55;100432.81;4964140;28;20067;-73
2022/03/13 09:47:39;;;;;;;9.63;4.73;;;;;;;9.40;31.41;100427.41;4966563;28;20086;-72
2022/03/13 09:50:07;;;;;;;12.43;4.93;;;;;;;9.33;32.17;100401.53;4970200;28;20062;-71
2022/03/13 09:52:36;;;;;;;11.20;4.97;;;;;;;9.44;32.03;100430.63;4976955;28;20414;-73
2022/03/13 09:55:02;;;;;;;12.18;5.00;;;;;;;9.39;31.96;100422.22;4975987;28;20137;-71
2022/03/13 09:57:28;;;;;;;11.30;5.13;;;;;;;9.45;31.71;100416.41;4958053;28;20047;-73
2022/03/13 09:59:54;;;;;;;10.20;4.90;;;;;;;9.59;31.49;100424.84;4952585;29;20126;-71
2022/03/13 10:02:20;;;;;;;10.23;4.88;;;;;;;9.53;30.88;100421.88;4966435;28;20130;-72
2022/03/13 10:04:46;;;;;;;10.15;4.45;;;;;;;9.88;30.93;100409.03;4956049;28;20066;-69
2022/03/13 10:07:14;;;;;;;11.00;4.68;;;;;;;10.06;30.63;100410.06;4971164;28;20113;-71
2022/03/13 10:09:43;;;;;;;11.23;5.00;;;;;;;9.73;31.00;100378.56;4987553;28;20410;-71
2022/03/13 10:12:10;;;;;;;10.70;5.40;;;;;;;9.66;31.23;100399.47;4987691;28;20081;-74
2022/03/13 10:14:39;;;;;;;14.13;5.50;;;;;;;9.70;31.91;100411.47;4987970;28;20055;-73
2022/03/13 10:17:25;;;;;;;12.40;4.80;;;;;;;9.87;30.87;100396.75;4987448;28;20046;-72
2022/03/13 10:19:51;;;;;;;6.80;3.95;;;;;;;9.70;31.10;100411.47;4971499;28;20077;-72
2022/03/13 10:22:17;;;;;;;8.68;4.30;;;;;;;9.51;31.27;100390.19;4971752;28;20074;-71
2022/03/13 10:24:49;;;;;;;9.60;4.78;;;;;;;9.96;31.00;100403.91;4971617;28;20043;-73
2022/03/13 10:27:17;;;;;;;15.30;4.68;;;;;;;10.09;30.80;100410.66;4971530;28;20038;-72
2022/03/13 10:29:45;;;;;;;13.95;4.50;;;;;;;10.25;30.86;100405.66;4939404;28;20054;-71
2022/03/13 10:32:12;;;;;;;10.23;4.47;;;;;;;10.16;30.59;100398.50;4971249;28;20121;-73
2022/03/13 10:34:38;;;;;;;10.18;4.88;;;;;;;10.49;30.33;100389.34;4981188;28;20428;-72
2022/03/13 10:37:08;;;;;;;7.30;4.30;;;;;;;10.67;29.73;100384.19;4985317;28;20129;-72
2022/03/13 10:39:34;;;;;;;10.55;4.25;;;;;;;10.93;29.20;100394.06;4980020;28;20129;-72
2022/03/13 10:42:03;;;;;;;12.02;4.35;;;;;;;11.19;29.16;100381.03;4947278;28;20055;-73
2022/03/13 10:44:38;;;;;;;7.65;4.38;;;;;;;11.70;28.38;100376.13;4978491;28;20046;-73
2022/03/13 10:47:08;;;;;;;9.38;4.63;;;;;;;11.82;27.89;100370.44;4979983;28;20072;-74
2022/03/13 10:49:45;;;;;;;10.80;4.20;;;;;;;12.31;27.33;100374.50;4993532;28;20069;-74
2022/03/13 10:52:31;;;;;;;9.40;4.30;;;;;;;12.78;26.54;100378.59;4970183;28;20062;-73
2022/03/13 10:55:18;;;;;;;10.45;4.35;;;;;;;14.45;24.77;100376.97;4987258;28;20038;-74
2022/03/13 10:57:49;;;;;;;7.40;3.90;;;;;;;16.50;21.85;100377.84;4987174;28;20511;-76
2022/03/13 11:00:16;;;;;;;8.18;4.15;;;;;;;17.06;21.26;100365.84;4972058;28;20050;-74
2022/03/13 11:02:42;;;;;;;10.70;3.92;;;;;;;17.81;19.99;100370.09;4970983;28;20054;-75
2022/03/13 11:05:11;;;;;;;5.93;4.03;;;;;;;18.87;18.80;100365.72;4970575;28;20043;-74
2022/03/13 11:07:37;;;;;;;6.97;4.07;;;;;;;18.39;18.94;100348.47;4955308;28;20452;-75
2022/03/13 11:10:06;;;;;;;7.50;4.05;;;;;;;18.25;18.95;100352.84;4953930;28;20185;-73
2022/03/13 11:12:33;;;;;;;10.15;4.20;;;;;;;18.08;19.20;100354.09;4972592;28;20042;-74
2022/03/13 11:15:02;;;;;;;6.13;4.07;;;;;;;18.83;18.51;100348.28;4980296;28;20402;-74
2022/03/13 11:17:32;;;;;;;8.25;4.40;;;;;;;19.27;18.06;100340.78;4995948;28;20058;-75
2022/03/13 11:20:03;;;;;;;7.22;4.15;;;;;;;20.03;17.18;100346.81;4977870;28;20042;-72
2022/03/13 11:22:30;;;;;;;6.72;4.40;;;;;;;21.57;16.21;100344.75;4980389;28;20494;-76
2022/03/13 11:25:00;;;;;;;10.55;4.47;;;;;;;23.34;14.46;100350.81;4997184;28;20065;-74
2022/03/13 11:27:26;;;;;;;8.68;4.00;;;;;;;22.76;14.36;100347.53;4994865;28;20041;-72
2022/03/13 11:29:54;;;;;;;8.88;4.10;;;;;;;21.67;14.85;100343.25;4959380;28;20128;-75
2022/03/13 11:32:38;;;;;;;10.30;4.47;;;;;;;19.80;16.30;100316.66;4951162;28;20038;-72